Terminal Aerodrome Forecast
Issued by NWS Detroit/Pontiac, MI

Home | Current Version | Previous Version | Text Only | Print | Product List | Glossary On
Versions: 1 2 3 4 5 6 7 8 9 10 11 12 13 14 15 16 17 18 19 20 21 22
000
FTUS43 KDTX 212300
TAFFNT
TAF
KFNT 212328Z 2200/2224 03005KT P6SM SCT045 BKN200
     FM221000 VRB03KT 3SM -SHRA BR OVC025
     FM221400 09005KT 6SM BR OVC035
     FM221900 14005KT P6SM BKN050=

USA.gov is the U.S. government's official web portal to all federal, state and local government web resources and services.